sensor_id;sensor_type;location;lat;lon;timestamp;pressure;altitude;pressure_sealevel;temperature;humidity
15050;BME280;7622;42.724;23.250;2023-08-20T00:01:26;94918.09;;;22.72;100.00
15050;BME280;7622;42.724;23.250;2023-08-20T00:03:54;94910.41;;;22.64;100.00
15050;BME280;7622;42.724;23.250;2023-08-20T00:06:23;94909.63;;;22.57;100.00
15050;BME280;7622;42.724;23.250;2023-08-20T00:08:50;94911.69;;;22.48;100.00
15050;BME280;7622;42.724;23.250;2023-08-20T00:11:17;94906.03;;;22.38;100.00
15050;BME280;7622;42.724;23.250;2023-08-20T00:13:44;94909.25;;;22.53;100.00
15050;BME280;7622;42.724;23.250;2023-08-20T00:16:11;94909.31;;;22.33;100.00
15050;BME280;7622;42.724;23.250;2023-08-20T00:18:39;94913.41;;;22.29;100.00
15050;BME280;7622;42.724;23.250;2023-08-20T00:21:06;94906.28;;;22.23;100.00
15050;BME280;7622;42.724;23.250;2023-08-20T00:23:35;94904.31;;;22.12;100.00
15050;BME280;7622;42.724;23.250;2023-08-20T00:26:03;94892.50;;;21.95;100.00
15050;BME280;7622;42.724;23.250;2023-08-20T00:28:30;94912.28;;;22.06;100.00
15050;BME280;7622;42.724;23.250;2023-08-20T00:30:58;94915.94;;;21.98;100.00
15050;BME280;7622;42.724;23.250;2023-08-20T00:33:26;94913.06;;;21.93;100.00
15050;BME280;7622;42.724;23.250;2023-08-20T00:35:52;94907.78;;;21.99;100.00
15050;BME280;7622;42.724;23.250;2023-08-20T00:38:19;94917.53;;;21.99;100.00
15050;BME280;7622;42.724;23.250;2023-08-20T00:40:47;94904.53;;;22.04;100.00
15050;BME280;7622;42.724;23.250;2023-08-20T00:43:14;94917.53;;;21.99;100.00
15050;BME280;7622;42.724;23.250;2023-08-20T00:45:41;94902.91;;;21.96;100.00
15050;BME280;7622;42.724;23.250;2023-08-20T00:48:09;94909.59;;;21.99;100.00
15050;BME280;7622;42.724;23.250;2023-08-20T00:50:38;94905.75;;;22.02;100.00
15050;BME280;7622;42.724;23.250;2023-08-20T00:53:05;94917.53;;;22.12;100.00
15050;BME280;7622;42.724;23.250;2023-08-20T00:55:33;94906.34;;;22.10;100.00
15050;BME280;7622;42.724;23.250;2023-08-20T00:58:01;94918.34;;;22.06;100.00
15050;BME280;7622;42.724;23.250;2023-08-20T01:00:28;94907.34;;;22.16;100.00
15050;BME280;7622;42.724;23.250;2023-08-20T01:02:55;94902.69;;;22.11;100.00
15050;BME280;7622;42.724;23.250;2023-08-20T01:05:22;94907.28;;;22.29;100.00
15050;BME280;7622;42.724;23.250;2023-08-20T01:07:58;94899.31;;;22.35;100.00
15050;BME280;7622;42.724;23.250;2023-08-20T01:10:36;94906.91;;;22.25;100.00
15050;BME280;7622;42.724;23.250;2023-08-20T01:13:07;94899.97;;;22.24;100.00
15050;BME280;7622;42.724;23.250;2023-08-20T01:15:34;94904.06;;;22.20;100.00
15050;BME280;7622;42.724;23.250;2023-08-20T01:18:01;94898.19;;;22.18;100.00
15050;BME280;7622;42.724;23.250;2023-08-20T01:20:31;94897.91;;;22.39;100.00
15050;BME280;7622;42.724;23.250;2023-08-20T01:23:21;94897.94;;;22.26;100.00
15050;BME280;7622;42.724;23.250;2023-08-20T01:26:10;94903.03;;;22.21;100.00
15050;BME280;7622;42.724;23.250;2023-08-20T01:28:41;94893.13;;;22.04;100.00
15050;BME280;7622;42.724;23.250;2023-08-20T01:31:09;94902.25;;;22.14;100.00
15050;BME280;7622;42.724;23.250;2023-08-20T01:33:37;94905.06;;;22.26;100.00
15050;BME280;7622;42.724;23.250;2023-08-20T01:36:07;94900.38;;;22.21;100.00
15050;BME280;7622;42.724;23.250;2023-08-20T01:38:35;94884.75;;;22.13;100.00
15050;BME280;7622;42.724;23.250;2023-08-20T01:41:03;94889.44;;;22.11;100.00
15050;BME280;7622;42.724;23.250;2023-08-20T01:43:29;94893.13;;;22.10;100.00
15050;BME280;7622;42.724;23.250;2023-08-20T01:45:58;94891.44;;;22.22;100.00
15050;BME280;7622;42.724;23.250;2023-08-20T01:48:24;94887.34;;;22.20;100.00
15050;BME280;7622;42.724;23.250;2023-08-20T01:50:51;94878.03;;;22.17;100.00
15050;BME280;7622;42.724;23.250;2023-08-20T01:53:18;94872.94;;;22.16;100.00
15050;BME280;7622;42.724;23.250;2023-08-20T01:55:45;94872.94;;;22.16;100.00
15050;BME280;7622;42.724;23.250;2023-08-20T01:58:12;94876.00;;;22.19;100.00
15050;BME280;7622;42.724;23.250;2023-08-20T02:00:38;94873.09;;;22.27;100.00
15050;BME280;7622;42.724;23.250;2023-08-20T02:03:07;94871.66;;;22.31;100.00
15050;BME280;7622;42.724;23.250;2023-08-20T02:05:33;94855.63;;;22.13;100.00
15050;BME280;7622;42.724;23.250;2023-08-20T02:08:00;94867.00;;;22.20;100.00
15050;BME280;7622;42.724;23.250;2023-08-20T02:10:27;94870.09;;;22.17;100.00
15050;BME280;7622;42.724;23.250;2023-08-20T02:12:54;94870.06;;;22.24;100.00
15050;BME280;7622;42.724;23.250;2023-08-20T02:15:21;94865.72;;;22.36;100.00
15050;BME280;7622;42.724;23.250;2023-08-20T02:17:47;94871.81;;;22.36;100.00
15050;BME280;7622;42.724;23.250;2023-08-20T02:20:16;94868.19;;;22.31;100.00
15050;BME280;7622;42.724;23.250;2023-08-20T02:22:43;94862.94;;;22.24;100.00
15050;BME280;7622;42.724;23.250;2023-08-20T02:25:09;94864.19;;;22.09;100.00
15050;BME280;7622;42.724;23.250;2023-08-20T02:27:36;94864.84;;;21.91;100.00
15050;BME280;7622;42.724;23.250;2023-08-20T02:30:04;94865.47;;;21.80;100.00
15050;BME280;7622;42.724;23.250;2023-08-20T02:32:30;94875.28;;;21.59;100.00
15050;BME280;7622;42.724;23.250;2023-08-20T02:34:58;94878.16;;;21.38;100.00
15050;BME280;7622;42.724;23.250;2023-08-20T02:37:26;94877.53;;;21.16;100.00
15050;BME280;7622;42.724;23.250;2023-08-20T02:39:53;94875.28;;;20.87;100.00
15050;BME280;7622;42.724;23.250;2023-08-20T02:42:20;94868.34;;;20.79;100.00
15050;BME280;7622;42.724;23.250;2023-08-20T02:44:47;94867.31;;;20.67;100.00
15050;BME280;7622;42.724;23.250;2023-08-20T02:47:13;94878.44;;;20.56;100.00
15050;BME280;7622;42.724;23.250;2023-08-20T02:49:40;94881.28;;;20.55;100.00
15050;BME280;7622;42.724;23.250;2023-08-20T02:52:07;94879.25;;;20.50;100.00
15050;BME280;7622;42.724;23.250;2023-08-20T02:54:35;94882.53;;;20.65;100.00
15050;BME280;7622;42.724;23.250;2023-08-20T02:57:02;94885.31;;;20.44;100.00
15050;BME280;7622;42.724;23.250;2023-08-20T02:59:29;94896.25;;;20.41;100.00
15050;BME280;7622;42.724;23.250;2023-08-20T03:01:55;94889.84;;;20.16;100.00
15050;BME280;7622;42.724;23.250;2023-08-20T03:04:22;94886.75;;;20.05;100.00
15050;BME280;7622;42.724;23.250;2023-08-20T03:06:49;94894.09;;;20.10;100.00
15050;BME280;7622;42.724;23.250;2023-08-20T03:09:15;94889.84;;;20.16;100.00
15050;BME280;7622;42.724;23.250;2023-08-20T03:11:43;94894.91;;;20.11;100.00
15050;BME280;7622;42.724;23.250;2023-08-20T03:14:10;94888.06;;;20.23;100.00
15050;BME280;7622;42.724;23.250;2023-08-20T03:16:37;94891.19;;;20.33;100.00
15050;BME280;7622;42.724;23.250;2023-08-20T03:19:04;94894.63;;;19.99;100.00
15050;BME280;7622;42.724;23.250;2023-08-20T03:21:31;94824.53;;;19.70;100.00
15050;BME280;7622;42.724;23.250;2023-08-20T03:23:57;94892.81;;;19.99;100.00
15050;BME280;7622;42.724;23.250;2023-08-20T03:26:24;94890.41;;;20.04;100.00
15050;BME280;7622;42.724;23.250;2023-08-20T03:28:52;94889.63;;;20.11;100.00
15050;BME280;7622;42.724;23.250;2023-08-20T03:31:19;94887.94;;;19.96;100.00
15050;BME280;7622;42.724;23.250;2023-08-20T03:33:46;94885.16;;;20.11;100.00
15050;BME280;7622;42.724;23.250;2023-08-20T03:36:12;94887.19;;;20.09;100.00
15050;BME280;7622;42.724;23.250;2023-08-20T03:38:39;94880.94;;;20.17;100.00
15050;BME280;7622;42.724;23.250;2023-08-20T03:41:06;94882.22;;;20.34;100.00
15050;BME280;7622;42.724;23.250;2023-08-20T03:43:32;94880.66;;;20.39;100.00
15050;BME280;7622;42.724;23.250;2023-08-20T03:46:01;94878.84;;;20.53;100.00
15050;BME280;7622;42.724;23.250;2023-08-20T03:48:28;94867.72;;;20.77;100.00
15050;BME280;7622;42.724;23.250;2023-08-20T03:50:55;94867.53;;;20.92;100.00
15050;BME280;7622;42.724;23.250;2023-08-20T03:53:22;94871.19;;;20.71;100.00
15050;BME280;7622;42.724;23.250;2023-08-20T03:55:49;94843.09;;;20.44;100.00
15050;BME280;7622;42.724;23.250;2023-08-20T03:58:16;94870.72;;;20.61;100.00
15050;BME280;7622;42.724;23.250;2023-08-20T04:00:43;94875.63;;;20.64;100.00
15050;BME280;7622;42.724;23.250;2023-08-20T04:03:11;94869.53;;;20.70;100.00
15050;BME280;7622;42.724;23.250;2023-08-20T04:05:39;94866.34;;;20.95;100.00
15050;BME280;7622;42.724;23.250;2023-08-20T04:08:06;94855.00;;;21.20;100.00
15050;BME280;7622;42.724;23.250;2023-08-20T04:10:33;94861.69;;;21.36;100.00
15050;BME280;7622;42.724;23.250;2023-08-20T04:13:00;94863.69;;;21.67;100.00
15050;BME280;7622;42.724;23.250;2023-08-20T04:15:27;94869.59;;;21.63;100.00
15050;BME280;7622;42.724;23.250;2023-08-20T04:17:54;94869.94;;;21.86;100.00
15050;BME280;7622;42.724;23.250;2023-08-20T04:20:22;94874.53;;;22.23;100.00
15050;BME280;7622;42.724;23.250;2023-08-20T04:22:49;94873.91;;;22.28;100.00
15050;BME280;7622;42.724;23.250;2023-08-20T04:25:16;94872.69;;;22.30;100.00
15050;BME280;7622;42.724;23.250;2023-08-20T04:27:43;94879.94;;;22.42;100.00
15050;BME280;7622;42.724;23.250;2023-08-20T04:30:10;94872.91;;;22.67;100.00
15050;BME280;7622;42.724;23.250;2023-08-20T04:32:37;94878.06;;;22.93;100.00
15050;BME280;7622;42.724;23.250;2023-08-20T04:35:05;94877.94;;;22.82;100.00
15050;BME280;7622;42.724;23.250;2023-08-20T04:37:33;94881.13;;;22.90;100.00
15050;BME280;7622;42.724;23.250;2023-08-20T04:40:00;94887.19;;;23.29;100.00
15050;BME280;7622;42.724;23.250;2023-08-20T04:42:26;94886.59;;;23.27;100.00
15050;BME280;7622;42.724;23.250;2023-08-20T04:44:53;94881.13;;;23.46;100.00
15050;BME280;7622;42.724;23.250;2023-08-20T04:47:20;94882.44;;;23.62;100.00
15050;BME280;7622;42.724;23.250;2023-08-20T04:49:46;94888.50;;;23.69;100.00
15050;BME280;7622;42.724;23.250;2023-08-20T04:52:13;94890.41;;;23.62;100.00
15050;BME280;7622;42.724;23.250;2023-08-20T04:54:41;94891.63;;;23.84;100.00
15050;BME280;7622;42.724;23.250;2023-08-20T04:57:08;94887.13;;;23.85;100.00
15050;BME280;7622;42.724;23.250;2023-08-20T04:59:35;94893.19;;;23.92;100.00
15050;BME280;7622;42.724;23.250;2023-08-20T05:02:01;94889.94;;;24.08;100.00
15050;BME280;7622;42.724;23.250;2023-08-20T05:04:28;94893.00;;;24.30;100.00
15050;BME280;7622;42.724;23.250;2023-08-20T05:06:55;94892.22;;;24.05;100.00
15050;BME280;7622;42.724;23.250;2023-08-20T05:09:22;94894.69;;;24.24;100.00
15050;BME280;7622;42.724;23.250;2023-08-20T05:11:50;94885.97;;;24.54;100.00
15050;BME280;7622;42.724;23.250;2023-08-20T05:14:16;94890.22;;;24.85;100.00
15050;BME280;7622;42.724;23.250;2023-08-20T05:16:43;94895.50;;;24.73;100.00
15050;BME280;7622;42.724;23.250;2023-08-20T05:19:10;94900.59;;;24.93;100.00
15050;BME280;7622;42.724;23.250;2023-08-20T05:21:37;94888.09;;;25.35;100.00
15050;BME280;7622;42.724;23.250;2023-08-20T05:24:04;94898.88;;;25.52;100.00
15050;BME280;7622;42.724;23.250;2023-08-20T05:26:31;94896.84;;;25.77;100.00
15050;BME280;7622;42.724;23.250;2023-08-20T05:28:59;94897.50;;;25.61;100.00
15050;BME280;7622;42.724;23.250;2023-08-20T05:31:26;94902.16;;;25.88;100.00
15050;BME280;7622;42.724;23.250;2023-08-20T05:33:53;94893.13;;;26.13;100.00
15050;BME280;7622;42.724;23.250;2023-08-20T05:36:19;94907.56;;;26.28;100.00
15050;BME280;7622;42.724;23.250;2023-08-20T05:38:46;94912.00;;;26.63;99.69
15050;BME280;7622;42.724;23.250;2023-08-20T05:41:13;94900.81;;;26.49;100.00
15050;BME280;7622;42.724;23.250;2023-08-20T05:43:40;94907.03;;;26.26;100.00
15050;BME280;7622;42.724;23.250;2023-08-20T05:46:08;94915.56;;;26.28;100.00
15050;BME280;7622;42.724;23.250;2023-08-20T05:48:34;94919.31;;;26.56;100.00
15050;BME280;7622;42.724;23.250;2023-08-20T05:51:01;94918.69;;;26.77;98.67
15050;BME280;7622;42.724;23.250;2023-08-20T05:53:28;94908.78;;;27.01;96.16
15050;BME280;7622;42.724;23.250;2023-08-20T05:55:55;94893.09;;;27.04;96.88
15050;BME280;7622;42.724;23.250;2023-08-20T05:58:21;94910.41;;;27.19;96.85
15050;BME280;7622;42.724;23.250;2023-08-20T06:00:48;94909.66;;;27.52;94.99
15050;BME280;7622;42.724;23.250;2023-08-20T06:03:16;94911.28;;;27.53;95.34
15050;BME280;7622;42.724;23.250;2023-08-20T06:05:43;94913.00;;;27.14;97.09
15050;BME280;7622;42.724;23.250;2023-08-20T06:08:10;94884.03;;;27.05;97.13
15050;BME280;7622;42.724;23.250;2023-08-20T06:10:36;94917.19;;;27.55;95.65
15050;BME280;7622;42.724;23.250;2023-08-20T06:13:03;94915.41;;;27.94;92.34
15050;BME280;7622;42.724;23.250;2023-08-20T06:15:30;94920.31;;;28.02;91.46
15050;BME280;7622;42.724;23.250;2023-08-20T06:17:57;94927.13;;;28.09;90.50
15050;BME280;7622;42.724;23.250;2023-08-20T06:20:25;94927.13;;;28.26;90.27
15050;BME280;7622;42.724;23.250;2023-08-20T06:22:52;94928.75;;;28.71;84.89
15050;BME280;7622;42.724;23.250;2023-08-20T06:25:18;94925.47;;;28.85;86.13
15050;BME280;7622;42.724;23.250;2023-08-20T06:27:45;94931.06;;;29.32;82.19
15050;BME280;7622;42.724;23.250;2023-08-20T06:30:12;94927.44;;;29.39;81.20
15050;BME280;7622;42.724;23.250;2023-08-20T06:32:39;94929.63;;;29.47;79.11
15050;BME280;7622;42.724;23.250;2023-08-20T06:35:07;94924.47;;;29.40;80.58
15050;BME280;7622;42.724;23.250;2023-08-20T06:37:36;94921.75;;;29.67;77.76
15050;BME280;7622;42.724;23.250;2023-08-20T06:40:03;94918.13;;;29.83;77.57
15050;BME280;7622;42.724;23.250;2023-08-20T06:42:30;94920.13;;;30.40;73.85
15050;BME280;7622;42.724;23.250;2023-08-20T06:44:58;94926.69;;;30.54;71.89
15050;BME280;7622;42.724;23.250;2023-08-20T06:47:27;94924.31;;;30.68;71.37
15050;BME280;7622;42.724;23.250;2023-08-20T06:49:56;94922.00;;;30.34;72.50
15050;BME280;7622;42.724;23.250;2023-08-20T06:52:22;94916.91;;;30.38;74.10
15050;BME280;7622;42.724;23.250;2023-08-20T06:54:51;94927.97;;;31.09;70.67
15050;BME280;7622;42.724;23.250;2023-08-20T06:57:17;94932.88;;;31.37;68.55
15050;BME280;7622;42.724;23.250;2023-08-20T06:59:44;94925.63;;;31.48;67.38
15050;BME280;7622;42.724;23.250;2023-08-20T07:02:11;94934.50;;;31.43;68.09
15050;BME280;7622;42.724;23.250;2023-08-20T07:04:37;94930.22;;;31.57;65.85
15050;BME280;7622;42.724;23.250;2023-08-20T07:07:04;94921.38;;;31.77;62.81
15050;BME280;7622;42.724;23.250;2023-08-20T07:09:31;94916.47;;;31.18;65.82
15050;BME280;7622;42.724;23.250;2023-08-20T07:11:59;94902.50;;;31.21;66.48
15050;BME280;7622;42.724;23.250;2023-08-20T07:14:26;94920.00;;;31.54;66.58
15050;BME280;7622;42.724;23.250;2023-08-20T07:16:53;94918.44;;;31.74;62.65
15050;BME280;7622;42.724;23.250;2023-08-20T07:19:19;94924.59;;;31.69;63.76
15050;BME280;7622;42.724;23.250;2023-08-20T07:21:46;94923.25;;;31.97;62.30
15050;BME280;7622;42.724;23.250;2023-08-20T07:24:13;94926.50;;;31.79;62.92
15050;BME280;7622;42.724;23.250;2023-08-20T07:26:40;94930.25;;;31.73;62.09
15050;BME280;7622;42.724;23.250;2023-08-20T07:29:08;94931.84;;;31.89;61.80
15050;BME280;7622;42.724;23.250;2023-08-20T07:31:35;94921.66;;;31.71;61.59
15050;BME280;7622;42.724;23.250;2023-08-20T07:34:03;94921.09;;;31.89;60.43
15050;BME280;7622;42.724;23.250;2023-08-20T07:36:30;94926.72;;;32.02;59.40
15050;BME280;7622;42.724;23.250;2023-08-20T07:38:56;94922.09;;;31.12;62.87
15050;BME280;7622;42.724;23.250;2023-08-20T07:41:23;94915.69;;;31.38;62.87
15050;BME280;7622;42.724;23.250;2023-08-20T07:43:50;94917.34;;;32.00;59.08
15050;BME280;7622;42.724;23.250;2023-08-20T07:46:19;94931.88;;;32.14;57.72
15050;BME280;7622;42.724;23.250;2023-08-20T07:48:46;94923.78;;;32.29;57.33
15050;BME280;7622;42.724;23.250;2023-08-20T07:51:13;94929.09;;;32.44;56.54
15050;BME280;7622;42.724;23.250;2023-08-20T07:53:39;94923.25;;;32.07;56.73
15050;BME280;7622;42.724;23.250;2023-08-20T07:56:06;94919.50;;;31.83;58.77
15050;BME280;7622;42.724;23.250;2023-08-20T07:58:34;94923.78;;;32.24;55.56
15050;BME280;7622;42.724;23.250;2023-08-20T08:01:01;94925.41;;;32.20;55.85
15050;BME280;7622;42.724;23.250;2023-08-20T08:03:29;94918.94;;;32.06;57.21
15050;BME280;7622;42.724;23.250;2023-08-20T08:05:56;94929.16;;;31.84;56.82
15050;BME280;7622;42.724;23.250;2023-08-20T08:08:23;94928.56;;;32.37;55.28
15050;BME280;7622;42.724;23.250;2023-08-20T08:10:50;94919.41;;;32.49;54.56
15050;BME280;7622;42.724;23.250;2023-08-20T08:13:19;94924.44;;;32.65;53.25
15050;BME280;7622;42.724;23.250;2023-08-20T08:15:46;94919.34;;;32.74;53.25
15050;BME280;7622;42.724;23.250;2023-08-20T08:18:13;94921.09;;;32.19;53.64
15050;BME280;7622;42.724;23.250;2023-08-20T08:20:42;94920.00;;;32.05;55.49
15050;BME280;7622;42.724;23.250;2023-08-20T08:23:08;94923.75;;;32.34;53.71
15050;BME280;7622;42.724;23.250;2023-08-20T08:25:35;94917.63;;;31.73;56.36
15050;BME280;7622;42.724;23.250;2023-08-20T08:28:02;94918.97;;;31.81;55.24
15050;BME280;7622;42.724;23.250;2023-08-20T08:30:29;94925.94;;;31.87;55.34
15050;BME280;7622;42.724;23.250;2023-08-20T08:32:56;94921.59;;;32.41;54.51
15050;BME280;7622;42.724;23.250;2023-08-20T08:35:23;94943.06;;;32.57;52.09
15050;BME280;7622;42.724;23.250;2023-08-20T08:37:51;94917.31;;;31.59;54.48
15050;BME280;7622;42.724;23.250;2023-08-20T08:40:18;94918.44;;;31.74;53.54
15050;BME280;7622;42.724;23.250;2023-08-20T08:42:48;94922.44;;;32.01;53.06
15050;BME280;7622;42.724;23.250;2023-08-20T08:45:17;94917.50;;;32.54;50.79
15050;BME280;7622;42.724;23.250;2023-08-20T08:47:45;94926.44;;;33.09;48.58
15050;BME280;7622;42.724;23.250;2023-08-20T08:50:12;94947.16;;;33.13;47.30
15050;BME280;7622;42.724;23.250;2023-08-20T08:52:39;94916.69;;;32.69;49.13
15050;BME280;7622;42.724;23.250;2023-08-20T08:55:09;94926.41;;;32.50;49.00
15050;BME280;7622;42.724;23.250;2023-08-20T08:57:36;94891.78;;;32.02;47.81
15050;BME280;7622;42.724;23.250;2023-08-20T09:00:04;94912.22;;;32.14;48.95
15050;BME280;7622;42.724;23.250;2023-08-20T09:02:31;94927.00;;;31.96;50.99
15050;BME280;7622;42.724;23.250;2023-08-20T09:04:58;94919.19;;;32.30;49.43
15050;BME280;7622;42.724;23.250;2023-08-20T09:07:25;94923.13;;;33.27;46.35
15050;BME280;7622;42.724;23.250;2023-08-20T09:09:57;94922.00;;;32.84;47.68
15050;BME280;7622;42.724;23.250;2023-08-20T09:12:26;94919.69;;;33.16;45.83
15050;BME280;7622;42.724;23.250;2023-08-20T09:14:53;94916.75;;;33.08;45.92
15050;BME280;7622;42.724;23.250;2023-08-20T09:17:25;94924.78;;;33.67;44.16
15050;BME280;7622;42.724;23.250;2023-08-20T09:19:54;94920.22;;;33.23;44.61
15050;BME280;7622;42.724;23.250;2023-08-20T09:22:23;94909.06;;;32.86;45.10
15050;BME280;7622;42.724;23.250;2023-08-20T09:24:53;94926.63;;;33.28;43.30
15050;BME280;7622;42.724;23.250;2023-08-20T09:27:21;94930.00;;;33.48;42.43
15050;BME280;7622;42.724;23.250;2023-08-20T09:29:50;94913.06;;;33.82;41.82
15050;BME280;7622;42.724;23.250;2023-08-20T09:32:19;94917.19;;;33.74;41.84
15050;BME280;7622;42.724;23.250;2023-08-20T09:34:48;94928.59;;;33.56;41.15
15050;BME280;7622;42.724;23.250;2023-08-20T09:37:16;94925.94;;;33.51;41.38
15050;BME280;7622;42.724;23.250;2023-08-20T09:39:43;94926.28;;;33.44;41.01
15050;BME280;7622;42.724;23.250;2023-08-20T09:42:11;94915.84;;;33.72;41.09
15050;BME280;7622;42.724;23.250;2023-08-20T09:44:39;94909.13;;;34.32;39.81
15050;BME280;7622;42.724;23.250;2023-08-20T09:47:08;94913.69;;;34.03;39.72
15050;BME280;7622;42.724;23.250;2023-08-20T09:49:37;94931.00;;;33.96;39.31
15050;BME280;7622;42.724;23.250;2023-08-20T09:52:06;94915.53;;;33.34;39.64
15050;BME280;7622;42.724;23.250;2023-08-20T09:54:50;94917.16;;;33.35;39.73
15050;BME280;7622;42.724;23.250;2023-08-20T09:57:25;94906.16;;;33.32;40.67
15050;BME280;7622;42.724;23.250;2023-08-20T09:59:54;94915.31;;;33.31;39.89
15050;BME280;7622;42.724;23.250;2023-08-20T10:02:24;94906.25;;;33.11;39.57
15050;BME280;7622;42.724;23.250;2023-08-20T10:04:52;94911.38;;;32.38;41.38
15050;BME280;7622;42.724;23.250;2023-08-20T10:07:19;94916.06;;;32.87;38.63
15050;BME280;7622;42.724;23.250;2023-08-20T10:09:48;94910.41;;;32.89;40.54
15050;BME280;7622;42.724;23.250;2023-08-20T10:12:16;94914.38;;;33.50;39.54
15050;BME280;7622;42.724;23.250;2023-08-20T10:14:43;94914.50;;;33.74;39.09
15050;BME280;7622;42.724;23.250;2023-08-20T10:17:11;94912.78;;;33.83;38.83
15050;BME280;7622;42.724;23.250;2023-08-20T10:19:42;94917.03;;;33.06;38.50
15050;BME280;7622;42.724;23.250;2023-08-20T10:22:09;94917.03;;;33.11;39.45
15050;BME280;7622;42.724;23.250;2023-08-20T10:24:47;94905.31;;;33.75;38.05
15050;BME280;7622;42.724;23.250;2023-08-20T10:27:24;94908.22;;;34.13;37.07
15050;BME280;7622;42.724;23.250;2023-08-20T10:29:52;94898.03;;;34.05;36.27
15050;BME280;7622;42.724;23.250;2023-08-20T10:32:19;94901.16;;;34.46;36.34
15050;BME280;7622;42.724;23.250;2023-08-20T10:34:51;94902.19;;;34.50;36.77
15050;BME280;7622;42.724;23.250;2023-08-20T10:37:26;94898.84;;;34.58;36.47
15050;BME280;7622;42.724;23.250;2023-08-20T10:39:54;94899.19;;;34.51;35.77
15050;BME280;7622;42.724;23.250;2023-08-20T10:42:22;94891.22;;;34.89;35.46
15050;BME280;7622;42.724;23.250;2023-08-20T10:44:58;94887.13;;;34.67;34.97
15050;BME280;7622;42.724;23.250;2023-08-20T10:47:25;94889.22;;;34.28;35.75
15050;BME280;7622;42.724;23.250;2023-08-20T10:49:54;94888.19;;;33.56;36.59
15050;BME280;7622;42.724;23.250;2023-08-20T10:52:23;94890.81;;;33.66;35.96
15050;BME280;7622;42.724;23.250;2023-08-20T10:54:50;94879.53;;;33.93;36.30
15050;BME280;7622;42.724;23.250;2023-08-20T10:57:17;94882.25;;;34.22;35.42
15050;BME280;7622;42.724;23.250;2023-08-20T10:59:56;94876.38;;;34.15;35.03
15050;BME280;7622;42.724;23.250;2023-08-20T11:02:24;94888.78;;;34.11;35.36
15050;BME280;7622;42.724;23.250;2023-08-20T11:04:52;94884.03;;;34.03;35.67
15050;BME280;7622;42.724;23.250;2023-08-20T11:07:21;94879.00;;;33.57;35.29
15050;BME280;7622;42.724;23.250;2023-08-20T11:09:50;94877.72;;;33.83;35.62
15050;BME280;7622;42.724;23.250;2023-08-20T11:12:20;94875.78;;;34.18;35.75
15050;BME280;7622;42.724;23.250;2023-08-20T11:14:46;94872.59;;;33.48;35.53
15050;BME280;7622;42.724;23.250;2023-08-20T11:17:13;94874.28;;;33.44;36.01
15050;BME280;7622;42.724;23.250;2023-08-20T11:19:40;94852.34;;;33.21;35.94
15050;BME280;7622;42.724;23.250;2023-08-20T11:22:08;94866.72;;;34.09;34.87
15050;BME280;7622;42.724;23.250;2023-08-20T11:24:36;94868.03;;;34.11;35.23
15050;BME280;7622;42.724;23.250;2023-08-20T11:27:04;94859.81;;;33.63;35.75
15050;BME280;7622;42.724;23.250;2023-08-20T11:29:31;94860.94;;;33.91;35.02
15050;BME280;7622;42.724;23.250;2023-08-20T11:31:58;94878.63;;;33.40;35.94
15050;BME280;7622;42.724;23.250;2023-08-20T11:34:28;94860.78;;;33.44;35.56
15050;BME280;7622;42.724;23.250;2023-08-20T11:36:55;94854.44;;;33.30;35.51
15050;BME280;7622;42.724;23.250;2023-08-20T11:39:23;94856.59;;;33.28;36.10
15050;BME280;7622;42.724;23.250;2023-08-20T11:41:51;94851.19;;;33.95;36.16
15050;BME280;7622;42.724;23.250;2023-08-20T11:44:22;94854.22;;;33.60;36.48
15050;BME280;7622;42.724;23.250;2023-08-20T11:46:49;94787.09;;;33.58;36.49
15050;BME280;7622;42.724;23.250;2023-08-20T11:49:16;94856.56;;;33.67;36.76
15050;BME280;7622;42.724;23.250;2023-08-20T11:51:44;94849.53;;;33.37;37.31
15050;BME280;7622;42.724;23.250;2023-08-20T11:54:12;94856.50;;;33.43;37.45
15050;BME280;7622;42.724;23.250;2023-08-20T11:56:43;94832.50;;;33.46;37.01
15050;BME280;7622;42.724;23.250;2023-08-20T11:59:12;94856.75;;;33.41;37.74
15050;BME280;7622;42.724;23.250;2023-08-20T12:01:39;94843.19;;;33.22;37.78
15050;BME280;7622;42.724;23.250;2023-08-20T12:04:08;94847.69;;;33.32;38.33
15050;BME280;7622;42.724;23.250;2023-08-20T12:06:36;94818.50;;;33.05;39.54
15050;BME280;7622;42.724;23.250;2023-08-20T12:09:18;94834.84;;;32.65;39.15
15050;BME280;7622;42.724;23.250;2023-08-20T12:11:48;94842.34;;;32.78;39.60
15050;BME280;7622;42.724;23.250;2023-08-20T12:14:17;94838.59;;;32.74;39.79
15050;BME280;7622;42.724;23.250;2023-08-20T12:16:44;94839.16;;;32.66;40.45
15050;BME280;7622;42.724;23.250;2023-08-20T12:19:12;94834.41;;;32.47;40.01
15050;BME280;7622;42.724;23.250;2023-08-20T12:21:40;94841.41;;;32.38;40.66
15050;BME280;7622;42.724;23.250;2023-08-20T12:24:09;94819.09;;;32.38;40.26
15050;BME280;7622;42.724;23.250;2023-08-20T12:26:36;94828.38;;;32.76;39.82
15050;BME280;7622;42.724;23.250;2023-08-20T12:29:03;94830.47;;;32.84;40.08
15050;BME280;7622;42.724;23.250;2023-08-20T12:31:31;94817.28;;;33.27;39.90
15050;BME280;7622;42.724;23.250;2023-08-20T12:33:58;94831.53;;;32.88;40.20
15050;BME280;7622;42.724;23.250;2023-08-20T12:36:25;94818.16;;;33.17;39.84
15050;BME280;7622;42.724;23.250;2023-08-20T12:38:52;94815.91;;;32.85;40.10
15050;BME280;7622;42.724;23.250;2023-08-20T12:41:19;94816.81;;;32.75;40.15
15050;BME280;7622;42.724;23.250;2023-08-20T12:43:45;94813.25;;;32.80;40.19
15050;BME280;7622;42.724;23.250;2023-08-20T12:46:12;94802.03;;;32.68;39.55
15050;BME280;7622;42.724;23.250;2023-08-20T12:48:40;94820.53;;;32.79;39.04
15050;BME280;7622;42.724;23.250;2023-08-20T12:51:07;94817.44;;;32.47;40.27
15050;BME280;7622;42.724;23.250;2023-08-20T12:53:38;94817.03;;;32.79;40.18
15050;BME280;7622;42.724;23.250;2023-08-20T12:56:04;94818.09;;;32.83;40.30
15050;BME280;7622;42.724;23.250;2023-08-20T12:58:31;94808.81;;;33.04;39.94